Weather observations for the past three days for
Charleston Executive Airport
Imperial (Metric)
Date Time (edt) Wind (mph) Vis. (mi.) Weather Sky Cond. Temperature (ºF) Relative Humidity Wind Chill (°F) Heat Index (°F) Pressure Precipitation (in)
Air Dwpt 6 hour altimeter (in) sea level (mb) 1 hr 3 hr 6 hr
Max. Min.
07 13:15 SW 14 G 24 4.00 Fair with Haze CLR 77 64.4 65% 79 29.84 0.0
07 12:55 SW 14 G 21 5.00 Fair with Haze CLR 78.8 64.4 61% 81 29.85 0.0
07 12:35 SW 16 G 22 7.00 Fair CLR 78.8 64.4 61% 81 29.87 0.0
07 11:55 SW 13 G 21 10.00 Fair CLR 80.6 62.6 54% 82 29.89 0.0
07 11:35 SW 10 G 16 10.00 Fair CLR 78.8 64.4 61% 81 29.9 0.0
07 11:15 SW 13 10.00 Fair CLR 77 64.4 65% 79 29.87 0.0
07 10:55 SW 12 10.00 Fair CLR 75.2 64.4 69% 77 29.87 0.0
07 10:35 SW 16 G 23 10.00 Fair CLR 73.4 62.6 69% 29.87 0.0
07 10:15 SW 10 G 17 10.00 Light Drizzle CLR 73.4 64.4 74% 29.89 0.0
07 09:55 SW 15 G 23 10.00 Fair CLR 71.6 64.4 78% 29.9 0.0
07 09:35 S 9 10.00 Fair CLR 71.6 64.4 78% 29.87 0.0
07 09:15 S 9 10.00 Fair CLR 71.6 64.4 78% 29.86 0.0
07 08:55 S 8 10.00 Fair CLR 69.8 66.2 88% 29.86 0.0
07 08:35 SW 5 10.00 Fair CLR 71.6 66.2 83% 29.88 0.0
07 08:15 SW 5 G 13 6.00 Light Drizzle Fog/Mist FEW060 FEW075 71.6 66.2 83% 29.89 0.0
07 07:55 SW 7 9.00 Fair CLR 71.6 68 88% 29.91 0.0
07 07:35 SW 5 9.00 Partly Cloudy SCT120 71.6 68 88% 29.92 0.0
07 06:55 SW 7 10.00 A Few Clouds FEW100 73.4 68 83% 29.94 0.0
07 06:35 W 5 10.00 Partly Cloudy FEW065 FEW075 SCT090 73.4 68 83% 29.94 0.0
07 06:15 SW 7 9.00 Light Drizzle FEW045 SCT060 BKN075 73.4 68 83% 29.94 0.0
07 05:55 SW 8 10.00 Mostly Cloudy FEW025 SCT055 BKN080 73.4 68 83% 29.95 0.0
07 05:30 SW 12 10.00 Overcast SCT017 BKN025 OVC120 73.4 68 83% 29.93 0.0
07 05:15 SW 12 G 18 10.00 Overcast FEW025 BKN033 OVC040 73.4 68 83% 29.92 0.0
07 04:55 SW 13 G 20 10.00 Mostly Cloudy SCT038 BKN060 BKN075 73.4 68 83% 29.92 0.0
07 04:35 SW 9 G 18 10.00 Mostly Cloudy SCT040 SCT060 BKN075 73.4 68 83% 29.91 0.0
07 04:15 SW 10 10.00 Partly Cloudy SCT041 SCT110 73.4 68 83% 29.9 0.0
07 03:55 SW 10 G 20 10.00 Partly Cloudy SCT041 SCT120 73.4 69.8 89% 29.9 0.0
07 03:35 SW 13 G 21 10.00 Fair CLR 73.4 69.8 89% 29.89 0.0
07 03:15 S 16 10.00 A Few Clouds FEW050 73.4 69.8 89% 29.88 0.0
07 02:55 SW 12 10.00 Partly Cloudy SCT050 73.4 69.8 89% 29.91 0.0
07 02:35 SW 9 10.00 Fair CLR 73.4 69.8 89% 29.91 0.0
07 02:15 SW 9 10.00 A Few Clouds FEW049 73.4 69.8 89% 29.93 0.0
07 01:55 SW 10 G 16 10.00 Fair CLR 73.4 69.8 89% 29.94 0.0
07 01:35 SW 13 10.00 Fair CLR 73.4 69.8 89% 29.96 0.0
07 01:15 SW 12 G 20 10.00 Fair CLR 73.4 69.8 89% 29.95 0.0
07 00:55 SW 12 10.00 Fair CLR 73.4 69.8 89% 29.96 0.0
07 00:35 SW 10 G 21 10.00 Fair CLR 73.4 69.8 89% 29.95 0.0
07 00:15 S 13 10.00 Fair CLR 73.4 69.8 89% 29.96 0.0
06 23:55 S 15 G 21 10.00 Fair CLR 73.4 69.8 89% 29.96 0.0
06 23:35 S 14 10.00 Fair CLR 73.4 69.8 89% 29.95 0.0
06 23:15 S 16 G 22 10.00 Fair CLR 73.4 69.8 89% 29.95 0.0
06 22:55 S 14 10.00 Fair CLR 73.4 69.8 89% 29.94 0.0
06 22:35 S 17 G 23 10.00 Fair CLR 73.4 69.8 89% 29.94 0.0
06 22:15 S 14 G 21 10.00 Fair CLR 73.4 69.8 89% 29.94 0.0
06 21:55 S 12 10.00 Fair CLR 73.4 69.8 89% 29.95 0.0
06 21:35 S 13 10.00 Fair CLR 73.4 69.8 89% 29.96 0.0
06 21:15 S 12 10.00 Fair CLR 73.4 69.8 89% 29.96 0.0
06 20:55 S 10 10.00 Fair CLR 73.4 68 83% 29.97 0.0
06 20:35 S 13 10.00 Fair CLR 73.4 68 83% 29.96 0.0
06 20:15 S 10 10.00 Fair CLR 73.4 68 83% 29.96 0.0
06 19:35 S 10 G 16 10.00 Fair CLR 73.4 68 83% 29.96 0.0
06 19:15 S 10 G 17 10.00 Fair CLR 75.2 68 78% 76 29.96 0.0
06 18:55 SW 12 10.00 Fair CLR 75.2 68 78% 76 29.96 0.0
06 18:35 S 16 10.00 Fair CLR 75.2 66.2 74% 77 29.95 0.0
06 18:15 SW 14 G 21 10.00 Fair CLR 77 66.2 69% 79 29.96 0.0
06 17:55 S 15 G 23 10.00 Fair CLR 77 66.2 69% 79 29.95 0.0
06 17:35 S 16 G 22 10.00 Fair CLR 78.8 66.2 65% 81 29.96 0.0
06 17:15 S 20 10.00 Fair CLR 78.8 66.2 65% 81 29.96 0.0
06 16:55 S 20 10.00 Fair CLR 78.8 66.2 65% 81 29.96 0.0
06 16:35 S 17 G 24 10.00 Fair CLR 78.8 64.4 61% 81 29.97 0.0
06 16:15 S 16 G 23 10.00 Fair CLR 80.6 66.2 62% 83 29.98 0.0
06 15:55 SW 14 G 21 10.00 Fair CLR 80.6 66.2 62% 83 29.98 0.0
06 15:35 S 13 G 21 10.00 Fair CLR 80.6 66.2 62% 83 29.99 0.0
06 15:15 S 16 10.00 Fair CLR 80.6 66.2 62% 83 30 0.0
06 14:55 SW 12 G 17 10.00 Fair CLR 80.6 66.2 62% 83 30.01 0.0
06 14:35 S 13 10.00 Fair CLR 78.8 66.2 65% 81 30.02 0.0
06 14:15 SW 12 G 18 10.00 Fair CLR 80.6 66.2 62% 83 30.02 0.0
06 13:55 SW 12 10.00 Fair CLR 80.6 66.2 62% 83 30.02 0.0
06 13:35 S 13 10.00 Fair CLR 78.8 66.2 65% 81 30.04 0.0
06 13:15 SW 13 10.00 Fair CLR 78.8 66.2 65% 81 30.04 0.0
06 12:55 S 13 G 18 10.00 Fair CLR 78.8 66.2 65% 81 30.04 0.0
06 12:35 S 12 G 20 10.00 Fair CLR 78.8 66.2 65% 81 30.04 0.0
06 12:15 S 14 10.00 Fair CLR 78.8 66.2 65% 81 30.04 0.0
06 11:55 S 13 10.00 Fair CLR 77 66.2 69% 79 30.05 0.0
06 11:35 SW 13 10.00 Fair CLR 78.8 64.4 61% 81 30.05 0.0
06 11:15 SW 13 10.00 Fair CLR 78.8 64.4 61% 81 30.05 0.0
06 10:55 SW 14 G 21 10.00 Fair CLR 78.8 62.6 58% 80 30.05 0.0
06 10:35 SW 12 G 20 10.00 Fair CLR 78.8 62.6 58% 80 30.04 0.0
06 10:15 SW 14 10.00 Fair CLR 77 62.6 61% 79 30.04 0.0
06 09:55 SW 12 10.00 Fair CLR 77 62.6 61% 79 30.04 0.0
06 09:35 SW 13 G 21 10.00 Fair CLR 77 62.6 61% 79 30.03 0.0
06 09:15 SW 10 G 16 10.00 Fair CLR 75.2 62.6 65% 77 30.03 0.0
06 08:55 SW 9 10.00 Fair CLR 75.2 64.4 69% 77 30.02 0.0
06 08:35 S 8 G 15 10.00 Fair CLR 73.4 64.4 74% 30.02 0.0
06 08:15 S 8 10.00 Fair CLR 73.4 64.4 74% 30.03 0.0
06 07:55 S 6 10.00 Fair CLR 71.6 64.4 78% 30.02 0.0
06 07:35 S 6 10.00 Fair CLR 69.8 64.4 83% 30.02 0.0
06 07:15 S 5 10.00 Fair CLR 68 64.4 88% 30.01 0.0
06 06:55 SW 3 10.00 Fair CLR 66.2 62.6 88% 30.01 0.0
06 06:35 S 5 10.00 Fair CLR 64.4 62.6 94% 30 0.0
06 06:15 SW 5 10.00 Fair CLR 66.2 62.6 88% 30.01 0.0
06 05:55 SW 5 10.00 Fair CLR 66.2 60.8 83% 30 0.0
06 05:35 SW 5 10.00 Fair CLR 66.2 60.8 83% 30 0.0
06 05:15 SW 3 10.00 Fair CLR 66.2 60.8 83% 30 0.0
06 04:55 SW 3 10.00 Fair CLR 66.2 60.8 83% 30 0.0
06 04:35 SW 5 10.00 Fair CLR 66.2 60.8 83% 30.01 0.0
06 04:15 SW 5 10.00 Fair CLR 66.2 60.8 83% 30 0.0
06 03:55 SW 5 10.00 Fair CLR 66.2 60.8 83% 30 0.0
06 03:35 S 6 10.00 Fair CLR 66.2 60.8 83% 30 0.0
06 03:15 S 7 10.00 Fair CLR 66.2 60.8 83% 30 0.0
06 02:55 S 7 10.00 Fair CLR 66.2 60.8 83% 30 0.0
06 02:35 S 8 10.00 Fair CLR 66.2 60.8 83% 30.01 0.0
06 02:15 S 7 10.00 Fair CLR 66.2 60.8 83% 30.01 0.0
06 01:55 S 6 10.00 Fair CLR 66.2 60.8 83% 30.01 0.0
06 01:35 S 6 10.00 Fair CLR 66.2 60.8 83% 30.01 0.0
06 01:15 S 6 10.00 Fair CLR 66.2 59 78% 30.03 0.0
06 00:55 S 7 10.00 Fair CLR 66.2 59 78% 30.03 0.0
06 00:35 S 7 10.00 Fair CLR 66.2 59 78% 30.04 0.0
06 00:15 S 7 10.00 Fair CLR 66.2 59 78% 30.04 0.0
05 23:50 S 7 10.00 Fair CLR 68 59 73% 30.03 0.0
05 23:35 S 7 10.00 Fair CLR 68 57.2 69% 30.03 0.0
05 23:15 S 6 10.00 Fair CLR 68 57.2 69% 30.03 0.0
05 22:55 S 6 10.00 Fair CLR 68 57.2 69% 30.03 0.0
05 22:35 S 6 10.00 Fair CLR 68 57.2 69% 30.04 0.0
05 22:15 S 7 10.00 Fair CLR 68 57.2 69% 30.04 0.0
05 21:55 S 8 10.00 Fair CLR 68 55.4 64% 30.04 0.0
05 21:35 SE 6 10.00 Fair CLR 68 55.4 64% 30.03 0.0
05 21:15 SE 3 10.00 Fair CLR 68 55.4 64% 30.03 0.0
05 20:55 SE 5 10.00 Fair CLR 68 55.4 64% 30.02 0.0
05 20:40 SE 6 10.00 Fair CLR 68 55.4 64% 30.02 0.0
05 20:15 S 6 10.00 Fair CLR 68 57.2 69% 30.03 0.0
05 19:55 SE 5 10.00 Fair CLR 69.8 57.2 64% 30.03 0.0
05 19:35 SE 8 10.00 Fair CLR 69.8 57.2 64% 30.02 0.0
05 19:15 SE 8 G 15 10.00 Fair CLR 71.6 57.2 61% 30.02 0.0
05 18:55 S 8 10.00 Fair CLR 71.6 55.4 57% 30.03 0.0
05 18:35 S 9 10.00 Fair CLR 71.6 57.2 61% 30.03 0.0
05 18:15 S 10 10.00 Partly Cloudy SCT043 73.4 55.4 53% 30.03 0.0
05 17:55 S 7 10.00 Mostly Cloudy BKN042 73.4 55.4 53% 30.03 0.0
05 17:35 S 8 G 15 10.00 Mostly Cloudy BKN041 BKN047 73.4 57.2 57% 30.04 0.0
05 17:15 S 10 G 16 10.00 Mostly Cloudy BKN041 BKN048 73.4 57.2 57% 30.04 0.0
05 16:30 S 8 G 15 10.00 A Few Clouds FEW042 73.4 57.2 57% 30.04 0.0
05 16:15 S 8 G 16 10.00 Partly Cloudy SCT042 73.4 57.2 57% 30.04 0.0
05 15:55 SE 8 10.00 Mostly Cloudy BKN041 73.4 57.2 57% 30.05 0.0
05 15:35 Vrbl 7 G 14 10.00 Mostly Cloudy BKN042 75.2 57.2 54% 78 30.06 0.0
05 15:15 SE 8 G 14 10.00 Partly Cloudy SCT041 75.2 57.2 54% 78 30.07 0.0
05 14:55 S 8 10.00 A Few Clouds FEW043 75.2 55.4 50% 78 30.08 0.0
05 14:35 SE 9 10.00 Fair CLR 75.2 55.4 50% 78 30.07 0.0
05 14:15 S 13 10.00 Fair CLR 75.2 55.4 50% 78 30.07 0.0
05 13:55 SE 12 10.00 Fair CLR 75.2 55.4 50% 78 30.07 0.0
05 13:35 SE 9 10.00 Fair CLR 75.2 55.4 50% 78 30.06 0.0
05 13:15 S 8 G 16 10.00 A Few Clouds FEW040 77 57.2 51% 79 30.08 0.0
05 12:55 S 10 G 20 10.00 Partly Cloudy SCT039 75.2 57.2 54% 78 30.08 0.0
05 12:35 S 9 G 15 10.00 Partly Cloudy SCT039 75.2 57.2 54% 78 30.09 0.0
05 12:15 S 10 10.00 Mostly Cloudy SCT038 BKN043 73.4 57.2 57% 30.09 0.0
05 11:35 S 7 G 15 10.00 A Few Clouds FEW042 73.4 55.4 53% 30.09 0.0
05 11:15 SE 6 G 14 10.00 Fair CLR 73.4 57.2 57% 30.09 0.0
05 10:55 S 10 10.00 Fair CLR 73.4 57.2 57% 30.09 0.0
05 10:35 S 10 10.00 Fair CLR 71.6 57.2 61% 30.08 0.0
05 10:15 S 6 10.00 Fair CLR 71.6 57.2 61% 30.08 0.0
05 09:55 SW 8 10.00 A Few Clouds FEW036 73.4 57.2 57% 30.08 0.0
05 09:35 S 7 G 14 10.00 A Few Clouds FEW036 73.4 57.2 57% 30.08 0.0
05 09:15 S 9 10.00 Fair CLR 71.6 57.2 61% 30.07 0.0
05 08:55 S 9 10.00 Fair CLR 71.6 57.2 61% 30.07 0.0
05 08:35 S 5 10.00 Fair CLR 71.6 57.2 61% 30.07 0.0
05 08:15 Calm 10.00 Fair CLR 69.8 59 69% 30.07 0.0
05 07:55 Calm 10.00 Fair CLR 66.2 59 78% 30.07 0.0
05 07:35 Calm 10.00 Fair CLR 60.8 57.2 88% 30.06 0.0
05 07:15 Calm 10.00 Fair CLR 59 55.4 88% 30.05 0.0
05 06:55 Calm 10.00 Fair CLR 55.4 55.4 100% 30.05 0.0
05 06:35 Calm 10.00 Fair CLR 55.4 53.6 94% 30.04 0.0
05 06:15 Calm 10.00 Fair CLR 57.2 55.4 94% 30.04 0.0
05 05:55 Calm 10.00 Fair CLR 57.2 55.4 94% 30.03 0.0
05 05:35 Calm 10.00 Fair CLR 57.2 55.4 94% 30.04 0.0
05 05:15 Calm 10.00 Fair CLR 57.2 55.4 94% 30.03 0.0
05 04:55 Calm 10.00 Fair CLR 57.2 55.4 94% 30.02 0.0
05 04:35 Calm 10.00 Fair CLR 59 55.4 88% 30.02 0.0
05 04:15 Calm 10.00 Fair CLR 62.6 55.4 77% 30.01 0.0
05 03:55 Calm 10.00 Fair CLR 64.4 55.4 73% 30.02 0.0
05 03:35 S 5 10.00 Fair CLR 62.6 55.4 77% 30.01 0.0
05 03:15 S 7 10.00 Fair CLR 62.6 55.4 77% 30.01 0.0
05 02:55 S 7 10.00 Fair CLR 64.4 55.4 73% 30.02 0.0
05 02:35 S 7 10.00 Fair CLR 64.4 57.2 78% 30.02 0.0
05 02:15 S 6 10.00 Fair CLR 64.4 57.2 78% 30.03 0.0
05 01:55 S 6 10.00 Fair CLR 64.4 57.2 78% 30.04 0.0
05 01:35 S 8 10.00 Fair CLR 64.4 57.2 78% 30.04 0.0
05 01:15 S 8 10.00 Fair CLR 64.4 57.2 78% 30.05 0.0
05 00:55 S 8 10.00 Fair CLR 66.2 57.2 73% 30.05 0.0
05 00:30 S 7 10.00 Fair CLR 64.4 57.2 78% 30.06 0.0
05 00:15 S 7 10.00 Fair CLR 64.4 55.4 73% 30.06 0.0
04 23:55 S 3 10.00 Fair CLR 64.4 55.4 73% 30.06 0.0
04 23:35 SW 5 10.00 Fair CLR 64.4 55.4 73% 30.06 0.0
04 23:15 S 5 10.00 Fair CLR 64.4 55.4 73% 30.06 0.0
04 22:55 S 6 10.00 Fair CLR 64.4 55.4 73% 30.06 0.0
04 22:35 S 6 10.00 Fair CLR 64.4 55.4 73% 30.05 0.0
04 22:15 S 5 10.00 Fair CLR 64.4 53.6 68% 30.05 0.0
04 21:55 S 6 10.00 Fair CLR 64.4 53.6 68% 30.05 0.0
04 21:35 SW 5 10.00 Fair CLR 64.4 53.6 68% 30.05 0.0
04 21:15 S 7 10.00 Fair CLR 66.2 51.8 60% 30.05 0.0
04 20:55 S 7 10.00 Fair CLR 64.4 51.8 64% 30.05 0.0
04 20:35 S 6 10.00 Fair CLR 64.4 51.8 64% 30.04 0.0
04 20:15 S 6 10.00 Fair CLR 64.4 51.8 64% 30.04 0.0
04 19:55 S 7 10.00 Fair CLR 66.2 51.8 60% 30.04 0.0
04 19:35 S 7 10.00 Fair CLR 68 50 53% 30.03 0.0
04 19:15 S 7 G 14 10.00 Fair CLR 69.8 48.2 46% 30.03 0.0
04 18:55 S 10 10.00 Fair CLR 71.6 48.2 44% 30.03 0.0
04 18:35 S 12 10.00 Fair CLR 71.6 46.4 41% 30.04 0.0
04 18:15 S 10 G 17 10.00 Fair CLR 71.6 46.4 41% 30.04 0.0
04 17:55 S 12 G 18 10.00 Fair CLR 73.4 48.2 41% 30.04 0.0
04 17:35 S 14 10.00 Fair CLR 73.4 48.2 41% 30.04 0.0
04 17:15 S 14 G 20 10.00 Fair CLR 73.4 50 44% 30.04 0.0
04 16:55 S 12 G 17 10.00 Fair CLR 73.4 53.6 50% 30.04 0.0
04 16:35 S 10 G 20 10.00 Fair CLR 73.4 51.8 47% 30.04 0.0
04 16:15 S 10 G 20 10.00 Fair CLR 73.4 53.6 50% 30.05 0.0
04 15:55 S 13 G 18 10.00 Fair CLR 73.4 51.8 47% 30.05 0.0
04 15:35 S 14 10.00 Fair CLR 75.2 51.8 44% 78 30.06 0.0
04 15:15 S 15 10.00 Fair CLR 75.2 50 41% 78 30.06 0.0
04 14:55 S 14 10.00 Fair CLR 75.2 50 41% 78 30.06 0.0
04 14:35 S 15 10.00 Fair CLR 75.2 51.8 44% 78 30.07 0.0
04 14:15 S 12 G 18 9.00 Fair CLR 75.2 51.8 44% 78 30.07 0.0
04 13:55 S 15 10.00 Fair CLR 75.2 50 41% 78 30.07 0.0
04 13:35 S 15 10.00 Fair CLR 75.2 48.2 39% 77 30.07 0.0
Date Time (edt) Wind (mph) Vis. (mi.) Weather Sky Cond. Air Dwpt Max. Min. Relative Humidity Wind Chill (°F) Heat Index (°F) altimeter (in) sea level (mb) 1 hr 3 hr 6 hr
6 hour
Temperature (ºF) Pressure Precipitation (in)